Time;durP1;ratioP1;P1;durP2;ratioP2;P2;SDS_P1;SDS_P2;PMS_P1;PMS_P2;Temp;Humidity;BMP_temperature;BMP_pressure;BME280_temperature;BME280_humidity;BME280_pressure;Samples;Min_cycle;Max_cycle;Signal;HPM_P1;HPM_P2
2023/06/22 00:00:54;;;;;;;12.00;10.80;;;;;;;21.78;82.73;95292.16;5073519;28;20841;-77
2023/06/22 00:03:22;;;;;;;12.57;11.27;;;;;;;21.77;82.08;95287.00;5073643;28;20487;-77
2023/06/22 00:05:49;;;;;;;12.87;11.50;;;;;;;21.75;81.70;95283.72;5073553;28;20452;-76
2023/06/22 00:08:18;;;;;;;11.20;10.10;;;;;;;21.70;80.69;95278.94;5073680;28;20454;-77
2023/06/22 00:10:46;;;;;;;13.77;11.87;;;;;;;21.62;81.53;95292.38;5076310;28;20450;-77
2023/06/22 00:13:14;;;;;;;13.50;12.20;;;;;;;21.56;81.01;95291.28;5077551;28;20446;-76
2023/06/22 00:15:42;;;;;;;13.10;11.60;;;;;;;21.51;82.32;95275.00;5042104;28;20910;-74
2023/06/22 00:18:10;;;;;;;12.23;11.03;;;;;;;21.53;81.65;95283.66;5077316;28;20477;-77
2023/06/22 00:20:37;;;;;;;13.03;11.73;;;;;;;21.49;82.02;95284.22;5077279;28;20991;-76
2023/06/22 00:23:07;;;;;;;12.90;11.43;;;;;;;21.46;82.04;95276.59;5077609;28;20445;-77
2023/06/22 00:25:36;;;;;;;11.47;9.60;;;;;;;21.42;81.68;95268.13;5077948;28;20454;-77
2023/06/22 00:28:03;;;;;;;12.97;11.00;;;;;;;21.36;81.76;95265.38;5077109;28;20452;-77
2023/06/22 00:30:31;;;;;;;14.63;12.23;;;;;;;21.36;83.00;95263.53;5077487;28;20461;-74
2023/06/22 00:32:58;;;;;;;11.83;10.63;;;;;;;21.30;81.74;95251.75;5077442;28;20453;-77
2023/06/22 00:35:28;;;;;;;14.23;10.80;;;;;;;21.30;82.16;95250.94;5077537;28;20457;-76
2023/06/22 00:38:00;;;;;;;11.27;10.23;;;;;;;21.28;81.16;95252.97;5043023;28;20446;-77
2023/06/22 00:40:27;;;;;;;12.63;11.33;;;;;;;21.25;81.86;95248.00;5077244;28;20988;-77
2023/06/22 00:42:55;;;;;;;12.90;11.50;;;;;;;21.23;82.86;95266.00;5076957;28;20929;-77
2023/06/22 00:45:23;;;;;;;12.17;11.03;;;;;;;21.22;84.11;95259.03;5077096;28;20527;-76
2023/06/22 00:47:51;;;;;;;12.13;11.00;;;;;;;21.24;83.69;95249.00;5077125;28;20534;-76
2023/06/22 00:50:21;;;;;;;12.57;11.27;;;;;;;21.29;83.87;95252.78;5076855;28;20450;-77
2023/06/22 00:52:52;;;;;;;14.17;10.63;;;;;;;21.34;83.50;95257.53;5076641;28;20787;-77
2023/06/22 00:55:19;;;;;;;12.27;10.97;;;;;;;21.36;83.35;95255.50;5076979;28;20450;-77
2023/06/22 00:57:47;;;;;;;12.27;11.10;;;;;;;21.41;82.87;95258.47;5076899;28;20455;-77
2023/06/22 01:00:19;;;;;;;12.73;11.53;;;;;;;21.47;83.30;95254.22;5076646;28;20881;-78
2023/06/22 01:02:46;;;;;;;11.00;9.90;;;;;;;21.51;83.69;95250.97;5077515;28;20517;-77
2023/06/22 01:05:14;;;;;;;12.57;11.43;;;;;;;21.55;82.99;95244.25;5078219;28;20436;-77
2023/06/22 01:07:49;;;;;;;11.90;10.70;;;;;;;21.55;82.13;95238.06;5075884;28;20474;-77
2023/06/22 01:10:22;;;;;;;12.27;11.20;;;;;;;21.61;81.42;95258.69;5077452;28;20446;-76
2023/06/22 01:12:53;;;;;;;11.63;10.53;;;;;;;21.51;81.27;95248.31;5078024;28;20452;-77
2023/06/22 01:15:25;;;;;;;12.53;11.33;;;;;;;21.47;82.01;95247.03;5076994;28;20440;-77
2023/06/22 01:17:54;;;;;;;12.63;11.00;;;;;;;21.43;82.50;95264.44;5077718;28;20471;-77
2023/06/22 01:20:21;;;;;;;14.17;11.90;;;;;;;21.33;82.73;95263.91;5076814;28;20490;-77
2023/06/22 01:23:03;;;;;;;14.67;12.13;;;;;;;21.18;84.28;95258.56;5041372;28;20477;-77
2023/06/22 01:25:40;;;;;;;13.80;12.33;;;;;;;21.14;84.11;95261.81;5076888;28;20938;-76
2023/06/22 01:28:24;;;;;;;21.43;12.63;;;;;;;21.12;85.79;95266.50;5077355;28;20452;-78
2023/06/22 01:31:03;;;;;;;13.13;11.80;;;;;;;21.17;85.60;95277.44;5076750;28;20453;-77
2023/06/22 01:33:30;;;;;;;13.60;11.90;;;;;;;21.26;86.32;95266.50;5077179;28;20478;-77
2023/06/22 01:35:57;;;;;;;13.03;11.70;;;;;;;21.24;85.11;95270.38;5076125;28;20443;-77
2023/06/22 01:38:25;;;;;;;13.03;11.10;;;;;;;21.18;85.92;95257.75;5040848;28;20453;-77
2023/06/22 01:40:52;;;;;;;13.77;12.37;;;;;;;21.30;86.09;95273.13;5076066;28;20495;-78
2023/06/22 01:43:21;;;;;;;13.53;12.13;;;;;;;21.36;85.26;95268.03;5040594;28;20451;-77
2023/06/22 01:45:48;;;;;;;13.00;11.70;;;;;;;21.32;85.15;95265.75;5085037;28;20449;-77
2023/06/22 01:48:16;;;;;;;13.83;12.47;;;;;;;21.30;85.51;95272.28;5084903;28;20433;-77
2023/06/22 01:50:44;;;;;;;19.00;13.60;;;;;;;21.26;85.99;95274.50;5041687;28;20458;-77
2023/06/22 01:53:11;;;;;;;14.67;13.23;;;;;;;21.29;86.41;95267.97;5084082;28;20440;-77
2023/06/22 01:55:38;;;;;;;16.13;13.80;;;;;;;21.30;86.30;95275.78;5056687;28;20453;-78
2023/06/22 01:58:05;;;;;;;14.93;13.50;;;;;;;21.19;85.99;95267.41;5056816;28;20444;-77
2023/06/22 02:00:34;;;;;;;14.63;13.20;;;;;;;21.22;87.17;95275.03;5091557;28;20476;-78
2023/06/22 02:03:06;;;;;;;14.93;13.53;;;;;;;21.06;86.90;95278.72;5073143;28;20470;-79
2023/06/22 02:05:37;;;;;;;16.20;13.67;;;;;;;20.99;87.62;95278.63;5092872;28;20446;-79
2023/06/22 02:08:10;;;;;;;16.90;12.57;;;;;;;20.98;88.41;95282.31;5092559;28;20447;-78
2023/06/22 02:10:38;;;;;;;15.90;14.03;;;;;;;20.94;88.21;95283.69;5093170;28;20445;-78
2023/06/22 02:13:08;;;;;;;17.60;14.20;;;;;;;20.79;87.85;95284.69;5093541;28;20450;-77
2023/06/22 02:15:35;;;;;;;16.20;14.23;;;;;;;20.73;89.47;95288.94;5093951;28;20456;-78
2023/06/22 02:18:02;;;;;;;15.13;13.53;;;;;;;20.69;88.76;95290.31;5093527;28;20454;-78
2023/06/22 02:20:29;;;;;;;15.47;13.87;;;;;;;20.83;89.86;95281.50;5085896;28;20486;-77
2023/06/22 02:22:57;;;;;;;14.40;12.90;;;;;;;20.84;88.29;95280.50;5075350;28;20475;-79
2023/06/22 02:25:24;;;;;;;16.90;13.10;;;;;;;20.87;88.40;95277.44;5075228;28;20447;-77
2023/06/22 02:27:50;;;;;;;15.57;14.07;;;;;;;20.77;88.48;95284.06;5075499;28;20442;-77
2023/06/22 02:30:17;;;;;;;15.57;13.80;;;;;;;20.70;89.34;95278.63;5040138;28;20458;-77
2023/06/22 02:32:44;;;;;;;19.47;14.03;;;;;;;20.61;89.80;95283.22;5074303;28;20912;-77
2023/06/22 02:35:11;;;;;;;18.47;15.00;;;;;;;20.51;90.23;95289.81;5074456;28;20920;-77
2023/06/22 02:37:41;;;;;;;19.17;15.60;;;;;;;20.50;90.65;95280.16;5075180;28;20807;-77
2023/06/22 02:40:10;;;;;;;17.80;15.90;;;;;;;20.57;92.20;95273.09;5074692;28;20478;-75
2023/06/22 02:42:37;;;;;;;15.47;13.93;;;;;;;20.66;92.14;95272.84;5074786;28;20458;-76
2023/06/22 02:45:05;;;;;;;17.50;15.60;;;;;;;20.64;91.02;95274.03;5075055;28;20449;-75
2023/06/22 02:47:32;;;;;;;15.63;14.10;;;;;;;20.63;91.40;95286.53;5075141;28;20453;-77
2023/06/22 02:49:58;;;;;;;17.30;15.10;;;;;;;20.65;91.95;95278.34;5075445;28;20458;-76
2023/06/22 02:52:25;;;;;;;15.80;14.20;;;;;;;20.66;91.86;95280.00;5039945;28;20460;-76
2023/06/22 02:54:52;;;;;;;19.13;16.27;;;;;;;20.68;91.84;95291.31;5074309;28;20458;-77
2023/06/22 02:57:20;;;;;;;17.60;15.47;;;;;;;20.75;91.36;95294.91;5074347;28;20465;-76
2023/06/22 02:59:47;;;;;;;20.97;16.30;;;;;;;20.77;90.05;95292.06;5039261;28;20496;-77
2023/06/22 03:02:14;;;;;;;15.93;14.17;;;;;;;20.73;91.19;95302.25;5074506;28;20445;-76
2023/06/22 03:04:40;;;;;;;15.70;13.90;;;;;;;20.70;91.42;95297.28;5074781;28;20551;-77
2023/06/22 03:07:07;;;;;;;25.40;15.47;;;;;;;20.70;91.58;95297.28;5039353;28;20933;-78
2023/06/22 03:09:34;;;;;;;14.63;13.23;;;;;;;20.68;91.57;95292.16;5039218;28;20922;-76
2023/06/22 03:12:02;;;;;;;18.40;13.40;;;;;;;20.70;90.14;95297.28;5055565;28;20430;-76
2023/06/22 03:14:30;;;;;;;15.97;13.60;;;;;;;20.53;88.59;95295.78;5074525;28;20441;-76
2023/06/22 03:17:01;;;;;;;16.67;14.77;;;;;;;20.49;89.26;95299.81;5074122;28;20446;-76
2023/06/22 03:19:29;;;;;;;16.73;13.93;;;;;;;20.34;89.94;95303.28;5040336;28;20450;-77
2023/06/22 03:21:56;;;;;;;17.03;15.03;;;;;;;20.33;91.05;95309.59;5074184;28;20524;-77
2023/06/22 03:24:22;;;;;;;22.30;15.53;;;;;;;20.35;91.78;95309.44;5073814;28;20453;-77
2023/06/22 03:26:49;;;;;;;16.73;14.93;;;;;;;20.40;92.22;95321.22;5038963;28;20492;-78
2023/06/22 03:29:16;;;;;;;19.17;15.87;;;;;;;20.48;91.96;95319.50;5074368;28;20448;-78
2023/06/22 03:31:44;;;;;;;18.43;15.90;;;;;;;20.55;91.87;95325.78;5074209;28;20502;-77
2023/06/22 03:34:11;;;;;;;19.73;15.47;;;;;;;20.61;91.40;95325.88;5073958;28;20450;-78
2023/06/22 03:36:38;;;;;;;17.00;13.83;;;;;;;20.70;91.44;95324.78;5073401;28;20450;-78
2023/06/22 03:39:05;;;;;;;22.03;14.60;;;;;;;20.83;91.21;95337.53;5074090;28;20461;-77
2023/06/22 03:41:31;;;;;;;15.93;14.17;;;;;;;20.97;91.04;95323.34;5073750;28;20492;-78
2023/06/22 03:43:58;;;;;;;14.87;13.10;;;;;;;21.19;89.78;95328.78;5073676;28;20464;-77
2023/06/22 03:46:25;;;;;;;15.83;14.13;;;;;;;21.38;88.57;95333.56;5073775;28;20785;-77
2023/06/22 03:48:53;;;;;;;16.30;14.73;;;;;;;21.59;88.37;95328.31;5073807;28;20872;-75
2023/06/22 03:51:20;;;;;;;15.57;13.87;;;;;;;21.83;86.64;95337.00;5073708;28;20465;-78
2023/06/22 03:53:48;;;;;;;16.33;14.60;;;;;;;21.98;85.11;95335.16;5055075;28;20905;-78
2023/06/22 03:56:20;;;;;;;16.00;14.30;;;;;;;22.11;84.71;95334.47;5073915;28;20543;-78
2023/06/22 03:58:46;;;;;;;13.80;12.40;;;;;;;22.16;82.61;95337.41;5073896;28;20452;-76
2023/06/22 04:01:13;;;;;;;15.23;12.73;;;;;;;22.25;81.77;95341.59;5073451;28;20495;-74
2023/06/22 04:03:40;;;;;;;15.40;12.27;;;;;;;22.36;79.77;95346.44;5073231;28;20469;-77
2023/06/22 04:06:10;;;;;;;13.00;11.30;;;;;;;22.42;79.21;95347.53;5092362;28;21251;-76
2023/06/22 04:08:37;;;;;;;13.10;11.70;;;;;;;22.45;78.03;95347.13;5093336;28;20462;-77
2023/06/22 04:11:04;;;;;;;13.07;11.77;;;;;;;22.54;77.93;95340.63;5093905;28;20475;-77
2023/06/22 04:13:31;;;;;;;17.03;12.90;;;;;;;22.57;79.04;95345.63;5092819;28;20541;-77
2023/06/22 04:15:58;;;;;;;17.70;13.30;;;;;;;22.52;78.40;95351.50;5092966;28;20441;-76
2023/06/22 04:18:25;;;;;;;14.47;12.97;;;;;;;22.40;78.44;95341.53;5093221;28;20458;-78
2023/06/22 04:20:52;;;;;;;14.00;12.17;;;;;;;22.43;78.05;95341.16;5093226;28;20837;-77
2023/06/22 04:23:20;;;;;;;17.50;11.67;;;;;;;22.79;84.55;95341.84;5093778;28;20443;-80
2023/06/22 04:25:47;;;;;;;14.40;11.27;;;;;;;23.20;80.00;95337.66;5093798;28;20469;-81
2023/06/22 04:28:35;;;;;;;21.40;10.47;;;;;;;23.61;76.47;95337.69;5093710;28;20947;-80
2023/06/22 04:31:02;;;;;;;11.83;10.60;;;;;;;24.01;75.59;95334.13;5031397;28;21018;-82
2023/06/22 04:33:30;;;;;;;11.70;10.57;;;;;;;24.17;71.14;95326.72;5031088;28;20919;-76
2023/06/22 04:35:57;;;;;;;13.03;11.73;;;;;;;24.23;71.66;95329.41;5030980;28;20494;-78
2023/06/22 04:38:25;;;;;;;12.57;11.43;;;;;;;24.22;70.09;95317.03;5030775;28;20504;-78
2023/06/22 04:40:53;;;;;;;15.57;12.43;;;;;;;24.10;72.58;95314.16;5030164;28;20488;-76
2023/06/22 04:43:19;;;;;;;13.57;12.27;;;;;;;24.12;69.32;95323.84;5030857;28;20495;-79
2023/06/22 04:45:52;;;;;;;14.40;12.90;;;;;;;23.97;70.21;95308.72;5011599;28;20457;-80
2023/06/22 04:48:18;;;;;;;13.47;12.07;;;;;;;23.89;70.48;95314.28;5011568;28;20461;-80
2023/06/22 04:50:45;;;;;;;14.70;12.03;;;;;;;23.87;71.97;95308.31;5016840;28;20433;-81
2023/06/22 04:53:12;;;;;;;16.00;14.50;;;;;;;24.18;73.37;95307.75;4998734;28;20444;-82
2023/06/22 04:55:45;;;;;;;14.37;12.50;;;;;;;24.43;72.79;95308.03;5063131;28;20948;-79
2023/06/22 04:58:12;;;;;;;17.03;11.60;;;;;;;24.75;75.05;95316.28;5097000;28;20435;-81
2023/06/22 05:00:40;;;;;;;13.57;12.30;;;;;;;25.11;74.18;95315.84;5096543;28;20478;-77
2023/06/22 05:03:10;;;;;;;16.23;14.53;;;;;;;25.58;75.81;95322.78;5096915;28;20574;-77
2023/06/22 05:05:37;;;;;;;13.30;11.90;;;;;;;26.00;69.45;95333.97;5046240;28;20482;-76
2023/06/22 05:08:06;;;;;;;14.50;11.80;;;;;;;26.39;66.21;95332.97;5096459;28;20475;-77
2023/06/22 05:10:33;;;;;;;13.40;11.37;;;;;;;26.66;64.60;95325.53;5088732;28;20459;-77
2023/06/22 05:13:01;;;;;;;11.87;10.63;;;;;;;26.99;70.42;95328.81;5082812;28;20934;-77
2023/06/22 05:15:30;;;;;;;11.83;10.63;;;;;;;27.33;66.46;95330.13;5096356;28;20438;-78
2023/06/22 05:17:58;;;;;;;13.40;11.93;;;;;;;27.62;61.37;95325.91;5096210;28;20926;-78
2023/06/22 05:20:25;;;;;;;12.00;10.80;;;;;;;27.88;61.42;95329.34;5081866;28;20467;-79
2023/06/22 05:22:51;;;;;;;12.00;10.80;;;;;;;28.06;58.34;95329.31;5084244;28;20785;-81
2023/06/22 05:25:18;;;;;;;13.10;11.63;;;;;;;27.74;58.97;95336.75;5096345;28;20432;-81
2023/06/22 05:27:46;;;;;;;16.30;14.07;;;;;;;26.80;61.92;95337.84;5096614;28;20436;-82
2023/06/22 05:30:16;;;;;;;14.87;13.30;;;;;;;26.81;62.02;95344.88;5096197;28;20428;-81
2023/06/22 05:32:44;;;;;;;16.00;12.97;;;;;;;26.90;64.24;95348.13;5096724;28;20494;-81
2023/06/22 05:35:10;;;;;;;16.70;14.73;;;;;;;25.49;68.66;95348.25;5096217;28;20448;-80
2023/06/22 05:37:37;;;;;;;19.30;15.23;;;;;;;24.96;70.49;95351.81;5077542;28;20502;-78
2023/06/22 05:40:07;;;;;;;19.73;15.80;;;;;;;24.27;73.49;95349.44;5076258;28;20453;-79
2023/06/22 05:42:33;;;;;;;17.23;15.17;;;;;;;24.50;73.22;95356.31;5028489;28;20533;-80
2023/06/22 05:45:00;;;;;;;17.87;15.97;;;;;;;24.02;75.55;95365.28;5089601;28;20448;-80
2023/06/22 05:47:28;;;;;;;19.70;15.40;;;;;;;24.27;74.76;95364.69;5075700;28;20784;-80
2023/06/22 05:49:55;;;;;;;31.63;14.67;;;;;;;24.76;73.44;95359.03;5095683;28;20439;-83
2023/06/22 05:52:22;;;;;;;27.37;14.70;;;;;;;25.53;71.96;95368.28;5096651;28;20439;-80
2023/06/22 05:54:49;;;;;;;16.70;14.97;;;;;;;25.85;69.37;95369.22;5087508;28;20460;-79
2023/06/22 05:57:16;;;;;;;23.83;16.07;;;;;;;26.24;68.01;95374.41;5096473;28;20446;-80
2023/06/22 05:59:42;;;;;;;17.00;14.40;;;;;;;26.69;66.80;95370.88;5095767;28;20455;-81
2023/06/22 06:02:09;;;;;;;22.70;16.40;;;;;;;26.87;64.83;95373.63;5095163;28;20484;-75
2023/06/22 06:04:37;;;;;;;16.33;14.67;;;;;;;27.03;64.58;95370.41;5095743;28;20811;-78
2023/06/22 06:07:04;;;;;;;16.40;14.77;;;;;;;27.50;64.09;95370.00;5059345;28;20781;-78
2023/06/22 06:09:31;;;;;;;20.90;14.57;;;;;;;27.95;62.63;95371.34;5095523;28;20780;-77
2023/06/22 06:11:58;;;;;;;17.27;12.90;;;;;;;28.05;61.13;95363.56;5059918;28;20774;-78
2023/06/22 06:14:25;;;;;;;17.13;14.40;;;;;;;28.45;60.21;95360.34;5095580;28;20448;-79
2023/06/22 06:16:52;;;;;;;24.37;15.07;;;;;;;28.65;59.21;95360.91;5095453;28;20941;-77
2023/06/22 06:19:18;;;;;;;17.90;15.00;;;;;;;28.38;60.06;95355.06;5095803;28;20475;-77
2023/06/22 06:21:47;;;;;;;22.80;14.53;;;;;;;28.73;59.05;95356.22;5094453;28;20480;-77
2023/06/22 06:24:14;;;;;;;18.27;15.27;;;;;;;29.04;58.01;95357.81;5094194;28;20444;-78
2023/06/22 06:26:40;;;;;;;17.83;14.23;;;;;;;29.01;57.27;95351.00;5093736;28;20479;-78
2023/06/22 06:29:07;;;;;;;15.07;13.63;;;;;;;28.84;57.46;95352.69;5093935;28;20448;-77
2023/06/22 06:31:34;;;;;;;21.00;14.60;;;;;;;28.51;57.90;95345.09;5093452;28;20453;-78
2023/06/22 06:34:02;;;;;;;13.13;11.97;;;;;;;28.93;58.06;95351.34;5093740;28;20455;-78
2023/06/22 06:36:28;;;;;;;16.30;14.30;;;;;;;29.27;56.67;95352.44;5094206;28;20451;-78
2023/06/22 06:38:57;;;;;;;18.43;13.17;;;;;;;29.58;54.81;95354.78;5094332;28;20444;-78
2023/06/22 06:41:24;;;;;;;18.97;12.90;;;;;;;29.92;53.33;95349.56;5094183;28;20479;-78
2023/06/22 06:43:51;;;;;;;14.17;12.00;;;;;;;29.99;53.65;95349.41;5093844;28;20474;-77
2023/06/22 06:46:19;;;;;;;17.40;13.47;;;;;;;30.27;53.30;95351.34;5093787;28;20444;-77
2023/06/22 06:48:45;;;;;;;13.77;12.47;;;;;;;30.35;51.38;95340.94;5093600;28;20444;-78
2023/06/22 06:51:12;;;;;;;13.67;11.47;;;;;;;30.57;50.96;95335.66;5093509;28;20922;-78
2023/06/22 06:53:39;;;;;;;12.50;11.30;;;;;;;30.76;50.52;95342.53;5093317;28;20467;-77
2023/06/22 06:56:10;;;;;;;15.07;13.47;;;;;;;31.00;50.77;95331.56;5041181;28;20803;-77
2023/06/22 06:58:37;;;;;;;17.20;14.33;;;;;;;30.85;49.31;95331.28;5059041;28;20938;-77
2023/06/22 07:01:04;;;;;;;12.73;11.43;;;;;;;30.83;50.51;95329.66;5041807;28;20436;-78
2023/06/22 07:03:32;;;;;;;14.27;10.53;;;;;;;30.94;51.56;95329.81;5093532;28;20508;-79
2023/06/22 07:05:58;;;;;;;18.83;13.73;;;;;;;31.03;48.36;95329.16;5093657;28;20946;-76
2023/06/22 07:08:25;;;;;;;15.80;12.57;;;;;;;30.99;49.88;95325.31;5093560;28;20451;-75
2023/06/22 07:10:53;;;;;;;13.40;12.00;;;;;;;30.35;50.80;95324.69;5093566;28;20494;-77
2023/06/22 07:13:24;;;;;;;16.03;14.20;;;;;;;29.81;52.43;95315.25;5093434;28;20447;-77
2023/06/22 07:15:50;;;;;;;18.20;12.43;;;;;;;29.81;53.29;95328.78;5093565;28;20459;-78
2023/06/22 07:18:17;;;;;;;18.70;12.93;;;;;;;29.76;54.39;95323.22;5057949;28;20436;-76
2023/06/22 07:20:44;;;;;;;19.07;14.20;;;;;;;29.59;54.59;95323.16;5073714;28;20436;-77
2023/06/22 07:23:11;;;;;;;13.10;11.90;;;;;;;29.72;54.50;95324.75;5093315;28;20487;-77
2023/06/22 07:25:38;;;;;;;15.57;12.83;;;;;;;29.84;55.10;95325.59;5093169;28;20447;-76
2023/06/22 07:28:06;;;;;;;16.83;13.27;;;;;;;29.53;54.35;95318.72;5093318;28;20443;-76
2023/06/22 07:30:34;;;;;;;15.03;13.53;;;;;;;29.34;55.26;95320.69;5093189;28;20835;-77
2023/06/22 07:33:03;;;;;;;13.97;12.67;;;;;;;29.81;54.87;95324.19;5093666;28;20450;-78
2023/06/22 07:35:30;;;;;;;13.77;12.37;;;;;;;30.20;55.02;95314.41;5042206;28;20523;-78
2023/06/22 07:37:57;;;;;;;14.40;12.90;;;;;;;30.45;51.18;95315.94;5057298;28;20447;-77
2023/06/22 07:40:24;;;;;;;19.93;13.90;;;;;;;30.34;50.60;95314.09;5093199;28;20448;-77
2023/06/22 07:42:51;;;;;;;16.87;13.30;;;;;;;30.56;52.65;95323.19;5093260;28;20805;-78
2023/06/22 07:45:18;;;;;;;14.50;12.90;;;;;;;30.94;51.94;95318.97;5074256;28;20436;-78
2023/06/22 07:47:47;;;;;;;14.67;12.53;;;;;;;31.09;50.41;95316.50;5057446;28;20436;-77
2023/06/22 07:50:13;;;;;;;13.27;11.87;;;;;;;31.35;51.07;95318.56;5093461;28;20501;-77
2023/06/22 07:52:40;;;;;;;23.40;12.17;;;;;;;31.64;49.55;95326.56;5092877;28;20450;-78
2023/06/22 07:55:08;;;;;;;14.60;12.23;;;;;;;31.86;49.41;95330.16;5093385;28;20452;-77
2023/06/22 07:57:36;;;;;;;14.47;13.23;;;;;;;31.94;49.73;95329.69;5092825;28;20444;-78
2023/06/22 08:00:11;;;;;;;15.90;14.07;;;;;;;31.84;49.16;95326.03;5092971;28;20805;-78
2023/06/22 08:02:37;;;;;;;14.67;12.77;;;;;;;31.75;49.72;95317.50;5092682;28;20495;-78
2023/06/22 08:05:08;;;;;;;16.03;13.07;;;;;;;31.75;47.00;95320.22;5093262;28;20945;-78
2023/06/22 08:07:35;;;;;;;25.33;13.13;;;;;;;31.58;48.07;95316.72;5093095;28;20478;-78
2023/06/22 08:10:02;;;;;;;20.43;14.57;;;;;;;31.46;47.50;95305.13;5092939;28;20455;-78
2023/06/22 08:12:29;;;;;;;14.97;13.43;;;;;;;31.37;47.36;95315.59;5092769;28;20447;-77
2023/06/22 08:14:56;;;;;;;15.40;12.83;;;;;;;31.38;49.07;95314.53;5092989;28;20439;-77
2023/06/22 08:17:23;;;;;;;17.03;13.47;;;;;;;31.10;48.45;95310.84;5093271;28;20480;-78
2023/06/22 08:19:50;;;;;;;15.30;13.63;;;;;;;30.82;48.65;95306.31;5092874;28;20440;-77
2023/06/22 08:22:18;;;;;;;15.47;13.87;;;;;;;30.67;51.31;95305.28;5093155;28;20985;-77
2023/06/22 08:24:45;;;;;;;20.23;14.10;;;;;;;30.34;51.92;95298.69;5092607;28;20949;-77
2023/06/22 08:27:13;;;;;;;13.70;12.50;;;;;;;30.04;51.76;95300.81;5092997;28;20448;-78
2023/06/22 08:29:41;;;;;;;14.27;12.70;;;;;;;29.96;51.65;95291.16;5092736;28;20456;-78
2023/06/22 08:32:09;;;;;;;21.73;15.27;;;;;;;29.88;50.45;95288.84;5096592;28;20536;-79
2023/06/22 08:34:36;;;;;;;16.60;12.97;;;;;;;29.95;51.81;95288.72;5096902;28;20447;-77
2023/06/22 08:37:06;;;;;;;28.23;13.90;;;;;;;30.01;51.83;95283.16;5096883;28;20448;-77
2023/06/22 08:39:34;;;;;;;24.03;14.23;;;;;;;30.07;53.71;95282.25;5096874;28;20455;-77
2023/06/22 08:42:01;;;;;;;16.57;13.53;;;;;;;30.36;54.19;95290.31;5096367;28;20475;-77
2023/06/22 08:44:28;;;;;;;26.53;14.53;;;;;;;30.55;52.68;95297.16;5096496;28;20448;-77
2023/06/22 08:46:55;;;;;;;14.90;12.50;;;;;;;30.70;51.85;95297.47;5096456;28;20451;-77
2023/06/22 08:49:22;;;;;;;20.50;12.90;;;;;;;30.73;49.60;95298.88;5096473;28;20505;-77
2023/06/22 08:51:49;;;;;;;14.63;12.43;;;;;;;30.63;49.01;95296.78;5096649;28;20444;-76
2023/06/22 08:54:16;;;;;;;13.97;12.53;;;;;;;30.68;48.72;95291.47;5096337;28;20436;-77
2023/06/22 08:56:44;;;;;;;17.57;11.50;;;;;;;30.70;49.52;95292.06;5096225;28;20953;-77
2023/06/22 08:59:11;;;;;;;18.07;12.67;;;;;;;30.67;49.40;95292.53;5096012;28;20865;-77
2023/06/22 09:01:38;;;;;;;14.03;12.53;;;;;;;30.59;49.38;95294.78;5096388;28;20443;-76
2023/06/22 09:04:07;;;;;;;18.23;13.37;;;;;;;30.59;51.17;95284.75;5096279;28;20596;-77
2023/06/22 09:06:34;;;;;;;14.43;11.70;;;;;;;30.71;50.52;95277.44;5096121;28;20479;-76
2023/06/22 09:09:00;;;;;;;14.10;12.67;;;;;;;30.91;50.37;95271.50;5096134;28;20444;-76
2023/06/22 09:11:27;;;;;;;14.43;12.30;;;;;;;31.12;49.45;95276.16;5096039;28;20450;-77
2023/06/22 09:13:55;;;;;;;15.60;13.43;;;;;;;31.32;50.07;95275.66;5096081;28;20454;-77
2023/06/22 09:16:22;;;;;;;13.13;11.80;;;;;;;31.40;46.87;95277.13;5096622;28;20481;-78
2023/06/22 09:18:49;;;;;;;14.63;12.70;;;;;;;31.49;47.79;95272.91;5096496;28;20462;-77
2023/06/22 09:21:16;;;;;;;12.63;11.43;;;;;;;31.47;48.05;95279.66;5044103;28;20439;-78
2023/06/22 09:23:45;;;;;;;15.13;12.10;;;;;;;31.26;46.46;95267.72;5096007;28;20479;-77
2023/06/22 09:26:12;;;;;;;12.97;10.90;;;;;;;31.37;48.79;95278.44;5095736;28;20927;-79
2023/06/22 09:28:39;;;;;;;12.83;11.27;;;;;;;31.42;47.31;95273.09;5096388;28;20519;-77
2023/06/22 09:31:07;;;;;;;15.80;12.03;;;;;;;31.38;46.46;95271.13;5096039;28;20807;-78
2023/06/22 09:33:34;;;;;;;11.67;10.50;;;;;;;31.41;45.57;95270.63;5095861;28;20444;-77
2023/06/22 09:36:00;;;;;;;14.40;13.00;;;;;;;31.40;47.01;95275.22;5096190;28;20451;-78
2023/06/22 09:38:27;;;;;;;11.90;10.87;;;;;;;31.45;48.72;95274.47;5095360;28;20451;-76
2023/06/22 09:40:54;;;;;;;13.20;11.93;;;;;;;31.54;46.24;95283.84;5095385;28;20934;-78
2023/06/22 09:43:21;;;;;;;12.97;10.73;;;;;;;31.54;45.40;95274.88;5094926;28;21001;-77
2023/06/22 09:45:47;;;;;;;13.43;12.20;;;;;;;31.49;45.77;95266.66;5095403;28;20879;-77
2023/06/22 09:48:16;;;;;;;11.37;10.37;;;;;;;31.49;44.38;95272.06;5095500;28;20444;-77
2023/06/22 09:50:43;;;;;;;11.70;10.30;;;;;;;31.43;44.92;95280.16;5060037;28;20476;-78
2023/06/22 09:53:09;;;;;;;11.30;10.37;;;;;;;31.35;46.26;95274.34;5094942;28;20454;-79
2023/06/22 09:55:36;;;;;;;12.83;10.70;;;;;;;31.28;45.82;95268.28;5096232;28;20448;-80
2023/06/22 09:58:03;;;;;;;12.20;10.97;;;;;;;31.25;44.66;95266.09;5095406;28;20444;-79
2023/06/22 10:00:30;;;;;;;12.63;11.23;;;;;;;31.26;45.63;95265.81;5095058;28;20452;-77
2023/06/22 10:02:57;;;;;;;16.27;12.77;;;;;;;31.18;46.34;95255.38;5094631;28;20893;-78
2023/06/22 10:05:25;;;;;;;12.80;11.70;;;;;;;31.20;47.27;95255.13;5095661;28;20941;-77
2023/06/22 10:07:52;;;;;;;15.80;11.20;;;;;;;31.18;48.83;95241.81;5095959;28;20448;-79
2023/06/22 10:10:19;;;;;;;13.83;11.07;;;;;;;31.26;46.73;95249.56;5060557;28;20439;-78
2023/06/22 10:12:48;;;;;;;13.77;12.43;;;;;;;31.21;45.73;95237.78;5096162;28;20447;-77
2023/06/22 10:15:16;;;;;;;12.60;11.30;;;;;;;31.15;46.58;95247.72;5077108;28;20431;-77
2023/06/22 10:17:42;;;;;;;18.77;12.37;;;;;;;31.10;47.38;95247.66;5095839;28;20447;-77
2023/06/22 10:20:12;;;;;;;13.50;12.20;;;;;;;31.08;47.56;95244.38;5095642;28;20458;-77
2023/06/22 10:22:41;;;;;;;13.33;11.40;;;;;;;31.01;46.81;95243.75;5060694;28;20553;-76
2023/06/22 10:25:09;;;;;;;13.13;11.93;;;;;;;31.03;45.28;95247.03;5096009;28;20448;-80
2023/06/22 10:27:39;;;;;;;12.37;11.10;;;;;;;31.07;45.42;95240.03;5095458;28;20470;-77
2023/06/22 10:30:07;;;;;;;12.97;11.67;;;;;;;31.04;43.46;95249.47;5095658;28;20451;-77
2023/06/22 10:32:34;;;;;;;15.63;12.30;;;;;;;31.06;46.08;95243.81;5044342;28;20950;-79
2023/06/22 10:35:01;;;;;;;12.03;10.70;;;;;;;31.11;45.43;95241.16;5095622;28;20455;-78
2023/06/22 10:37:28;;;;;;;12.30;11.07;;;;;;;31.08;45.03;95236.25;5095218;28;20451;-77
2023/06/22 10:39:56;;;;;;;12.77;11.50;;;;;;;31.09;46.22;95229.75;5095157;28;20444;-78
2023/06/22 10:42:23;;;;;;;11.80;10.63;;;;;;;30.97;46.52;95229.03;5095306;28;20495;-77
2023/06/22 10:44:49;;;;;;;12.40;11.10;;;;;;;30.85;45.42;95231.00;5095630;28;20459;-76
2023/06/22 10:47:16;;;;;;;12.00;10.67;;;;;;;30.91;45.13;95221.88;5095203;28;20470;-76
2023/06/22 10:49:43;;;;;;;11.33;10.13;;;;;;;31.00;46.58;95229.38;5094694;28;20957;-77
2023/06/22 10:52:10;;;;;;;14.00;11.60;;;;;;;31.07;45.61;95219.16;5095412;28;20434;-77
2023/06/22 10:54:38;;;;;;;15.70;11.37;;;;;;;31.14;45.25;95227.09;5093672;28;20446;-76
2023/06/22 10:57:07;;;;;;;13.20;10.90;;;;;;;31.23;46.65;95230.25;5058924;28;20915;-76
2023/06/22 10:59:34;;;;;;;14.90;13.40;;;;;;;31.28;44.19;95223.00;5094842;28;20455;-79
2023/06/22 11:02:02;;;;;;;13.03;11.10;;;;;;;31.29;44.42;95223.81;5096147;28;20470;-79
2023/06/22 11:04:29;;;;;;;13.20;11.90;;;;;;;31.01;43.68;95222.88;5095675;28;20494;-79
2023/06/22 11:06:56;;;;;;;12.53;10.93;;;;;;;31.01;44.80;95222.88;5096061;28;20443;-78
2023/06/22 11:09:23;;;;;;;14.57;11.07;;;;;;;31.16;46.22;95219.56;5097930;28;20852;-80
2023/06/22 11:11:53;;;;;;;12.23;11.07;;;;;;;31.27;44.37;95215.13;5095602;28;20451;-80
2023/06/22 11:14:21;;;;;;;15.27;12.10;;;;;;;31.35;43.31;95222.81;5102144;28;20961;-80
2023/06/22 11:16:48;;;;;;;23.23;11.87;;;;;;;31.37;44.81;95213.34;5094159;28;20440;-80
2023/06/22 11:19:15;;;;;;;14.50;11.40;;;;;;;31.44;44.36;95205.84;5094360;28;20866;-80